createdAt,value
2024-03-13T00:02:13.864Z,100.00
2024-03-13T00:04:48.630Z,100.00
2024-03-13T00:07:16.954Z,100.00
2024-03-13T00:09:47.929Z,100.00
2024-03-13T00:12:18.637Z,100.00
2024-03-13T00:14:54.362Z,100.00
2024-03-13T00:17:22.036Z,100.00
2024-03-13T00:19:52.426Z,100.00
2024-03-13T00:22:20.494Z,100.00
2024-03-13T00:24:53.200Z,100.00
2024-03-13T00:27:21.869Z,100.00
2024-03-13T00:29:49.708Z,100.00
2024-03-13T00:32:19.240Z,100.00
2024-03-13T00:34:46.689Z,100.00
2024-03-13T00:37:17.909Z,100.00
2024-03-13T00:39:45.259Z,100.00
2024-03-13T00:42:13.133Z,100.00
2024-03-13T00:44:42.668Z,100.00
2024-03-13T00:47:12.907Z,100.00
2024-03-13T00:49:43.437Z,100.00
2024-03-13T00:52:11.586Z,100.00
2024-03-13T00:54:45.890Z,100.00
2024-03-13T00:57:15.079Z,100.00
2024-03-13T00:59:41.957Z,100.00
2024-03-13T01:02:09.520Z,100.00
2024-03-13T01:04:39.190Z,100.00
2024-03-13T01:07:09.577Z,100.00
2024-03-13T01:09:39.158Z,100.00
2024-03-13T01:12:07.522Z,100.00
2024-03-13T01:14:37.677Z,100.00
2024-03-13T01:17:05.125Z,100.00
2024-03-13T01:19:36.171Z,100.00
2024-03-13T01:22:16.439Z,100.00
2024-03-13T01:24:44.768Z,100.00
2024-03-13T01:27:11.885Z,100.00
2024-03-13T01:29:43.260Z,100.00
2024-03-13T01:32:12.452Z,100.00
2024-03-13T01:34:39.568Z,100.00
2024-03-13T01:37:22.610Z,100.00
2024-03-13T01:39:53.174Z,100.00
2024-03-13T01:42:34.418Z,100.00
2024-03-13T01:45:20.274Z,100.00
2024-03-13T01:48:03.528Z,100.00
2024-03-13T01:50:44.290Z,100.00
2024-03-13T01:53:26.204Z,100.00
2024-03-13T01:55:56.116Z,100.00
2024-03-13T01:58:41.071Z,100.00
2024-03-13T02:01:22.599Z,100.00
2024-03-13T02:03:51.960Z,100.00
2024-03-13T02:06:19.662Z,100.00
2024-03-13T02:08:50.193Z,100.00
2024-03-13T02:11:17.442Z,100.00
2024-03-13T02:13:44.623Z,100.00
2024-03-13T02:16:11.561Z,100.00
2024-03-13T02:18:42.044Z,100.00
2024-03-13T02:21:09.245Z,100.00
2024-03-13T02:23:40.439Z,100.00
2024-03-13T02:26:10.432Z,100.00
2024-03-13T02:28:40.752Z,100.00
2024-03-13T02:31:08.259Z,100.00
2024-03-13T02:33:40.238Z,100.00
2024-03-13T02:36:07.799Z,100.00
2024-03-13T02:38:36.127Z,100.00
2024-03-13T02:41:03.613Z,100.00
2024-03-13T02:43:32.135Z,100.00
2024-03-13T02:46:03.632Z,100.00
2024-03-13T02:48:30.984Z,100.00
2024-03-13T02:50:58.034Z,100.00
2024-03-13T02:53:25.566Z,100.00
2024-03-13T02:55:56.423Z,100.00
2024-03-13T02:58:24.697Z,100.00
2024-03-13T03:00:52.076Z,100.00
2024-03-13T03:03:21.892Z,100.00
2024-03-13T03:05:48.752Z,100.00
2024-03-13T03:08:16.362Z,100.00
2024-03-13T03:10:43.323Z,100.00
2024-03-13T03:13:12.145Z,100.00
2024-03-13T03:15:40.767Z,100.00
2024-03-13T03:18:09.074Z,100.00
2024-03-13T03:20:38.195Z,100.00
2024-03-13T03:23:05.062Z,100.00
2024-03-13T03:25:32.192Z,100.00
2024-03-13T03:28:01.342Z,100.00
2024-03-13T03:30:32.045Z,100.00
2024-03-13T03:33:02.944Z,100.00
2024-03-13T03:35:33.367Z,100.00
2024-03-13T03:38:05.571Z,100.00
2024-03-13T03:40:35.056Z,100.00
2024-03-13T03:43:02.284Z,100.00
2024-03-13T03:45:30.366Z,100.00
2024-03-13T03:48:04.539Z,100.00
2024-03-13T03:50:34.838Z,100.00
2024-03-13T03:53:02.210Z,100.00
2024-03-13T03:55:29.255Z,100.00
2024-03-13T03:57:56.080Z,100.00
2024-03-13T04:00:24.004Z,100.00
2024-03-13T04:02:53.105Z,100.00
2024-03-13T04:05:21.607Z,100.00
2024-03-13T04:07:50.672Z,100.00
2024-03-13T04:10:21.668Z,100.00
2024-03-13T04:12:51.100Z,100.00
2024-03-13T04:15:23.181Z,100.00
2024-03-13T04:17:54.683Z,100.00
2024-03-13T04:20:23.419Z,100.00
2024-03-13T04:22:52.124Z,100.00
2024-03-13T04:25:20.872Z,100.00
2024-03-13T04:27:50.306Z,100.00
2024-03-13T04:30:17.050Z,100.00
2024-03-13T04:32:44.153Z,100.00
2024-03-13T04:35:13.224Z,100.00
2024-03-13T04:37:40.794Z,100.00
2024-03-13T04:40:11.516Z,100.00
2024-03-13T04:42:39.266Z,100.00
2024-03-13T04:45:08.391Z,100.00
2024-03-13T04:47:40.789Z,100.00
2024-03-13T04:50:10.543Z,100.00
2024-03-13T04:52:39.661Z,100.00
2024-03-13T04:55:07.921Z,100.00
2024-03-13T04:57:35.152Z,100.00
2024-03-13T05:00:03.329Z,100.00
2024-03-13T05:02:30.361Z,100.00
2024-03-13T05:04:58.958Z,100.00
2024-03-13T05:07:26.521Z,100.00
2024-03-13T05:09:57.121Z,100.00
2024-03-13T05:12:27.966Z,100.00
2024-03-13T05:14:55.964Z,100.00
2024-03-13T05:17:26.286Z,100.00
2024-03-13T05:19:53.526Z,100.00
2024-03-13T05:22:21.283Z,100.00
2024-03-13T05:24:51.088Z,100.00
2024-03-13T05:27:19.123Z,100.00
2024-03-13T05:29:49.884Z,100.00
2024-03-13T05:32:17.481Z,100.00
2024-03-13T05:34:44.529Z,100.00
2024-03-13T05:37:15.650Z,100.00
2024-03-13T05:39:42.890Z,100.00
2024-03-13T05:42:12.265Z,100.00
2024-03-13T05:44:40.913Z,100.00
2024-03-13T05:47:08.256Z,100.00
2024-03-13T05:49:37.391Z,100.00
2024-03-13T05:52:06.332Z,100.00
2024-03-13T05:54:34.349Z,100.00
2024-03-13T05:57:01.674Z,100.00
2024-03-13T05:59:31.286Z,100.00
2024-03-13T06:01:58.776Z,100.00
2024-03-13T06:04:26.272Z,100.00
2024-03-13T06:06:53.812Z,100.00
2024-03-13T06:09:21.271Z,100.00
2024-03-13T06:11:50.549Z,100.00
2024-03-13T06:14:18.491Z,100.00
2024-03-13T06:16:46.536Z,100.00
2024-03-13T06:19:14.996Z,100.00
2024-03-13T06:21:42.482Z,100.00
2024-03-13T06:24:11.264Z,100.00
2024-03-13T06:26:45.941Z,100.00
2024-03-13T06:29:27.973Z,100.00
2024-03-13T06:31:55.306Z,100.00
2024-03-13T06:34:24.662Z,100.00
2024-03-13T06:36:51.833Z,100.00
2024-03-13T06:39:22.652Z,100.00
2024-03-13T06:41:52.111Z,100.00
2024-03-13T06:44:19.154Z,100.00
2024-03-13T06:46:48.459Z,100.00
2024-03-13T06:49:18.177Z,100.00
2024-03-13T06:51:45.078Z,100.00
2024-03-13T06:54:13.136Z,100.00
2024-03-13T06:56:45.079Z,100.00
2024-03-13T06:59:18.215Z,100.00
2024-03-13T07:01:48.553Z,100.00
2024-03-13T07:04:16.976Z,100.00
2024-03-13T07:06:44.566Z,100.00
2024-03-13T07:09:11.963Z,100.00
2024-03-13T07:11:40.144Z,100.00
2024-03-13T07:14:13.360Z,100.00
2024-03-13T07:16:40.426Z,100.00
2024-03-13T07:19:09.326Z,100.00
2024-03-13T07:21:36.624Z,100.00
2024-03-13T07:24:04.435Z,100.00
2024-03-13T07:26:35.500Z,100.00
2024-03-13T07:29:02.514Z,100.00
2024-03-13T07:31:30.742Z,100.00
2024-03-13T07:33:58.564Z,100.00
2024-03-13T07:36:28.067Z,100.00
2024-03-13T07:38:56.484Z,100.00
2024-03-13T07:41:23.475Z,100.00
2024-03-13T07:43:52.502Z,100.00
2024-03-13T07:46:23.980Z,100.00
2024-03-13T07:48:52.298Z,100.00
2024-03-13T07:51:19.544Z,100.00
2024-03-13T07:53:46.992Z,100.00
2024-03-13T07:56:16.264Z,100.00
2024-03-13T07:58:44.436Z,100.00
2024-03-13T08:01:13.136Z,100.00
2024-03-13T08:03:40.272Z,100.00
2024-03-13T09:07:56.759Z,100.00
2024-03-13T09:10:23.790Z,100.00
2024-03-13T09:12:51.982Z,100.00
2024-03-13T09:15:19.175Z,100.00
2024-03-13T09:17:47.868Z,100.00
2024-03-13T09:20:17.087Z,100.00
2024-03-13T09:22:47.001Z,100.00
2024-03-13T09:25:14.079Z,100.00
2024-03-13T09:27:41.083Z,100.00
2024-03-13T09:30:09.590Z,100.00
2024-03-13T09:32:38.150Z,100.00
2024-03-13T09:35:10.604Z,100.00
2024-03-13T09:37:38.891Z,100.00
2024-03-13T09:40:08.742Z,100.00
2024-03-13T09:42:37.887Z,100.00
2024-03-13T09:45:17.845Z,100.00
2024-03-13T09:47:45.918Z,100.00
2024-03-13T09:50:15.490Z,100.00
2024-03-13T09:52:45.466Z,100.00
2024-03-13T09:55:16.857Z,99.68
2024-03-13T09:57:49.942Z,100.00
2024-03-13T10:00:20.777Z,100.00
2024-03-13T10:02:52.527Z,98.76
2024-03-13T10:05:20.947Z,97.82
2024-03-13T10:07:52.227Z,96.31
2024-03-13T10:10:28.013Z,92.92
2024-03-13T10:13:03.467Z,92.27
2024-03-13T10:15:30.919Z,90.83
2024-03-13T10:18:15.254Z,85.17
2024-03-13T10:21:10.174Z,84.92
2024-03-13T10:23:41.793Z,82.10
2024-03-13T10:26:10.681Z,80.35
2024-03-13T10:28:39.305Z,82.23
2024-03-13T10:31:06.616Z,80.02
2024-03-13T10:33:36.056Z,78.42
2024-03-13T10:36:05.327Z,79.60
2024-03-13T10:38:35.299Z,78.38
2024-03-13T10:41:05.865Z,78.29
2024-03-13T10:43:33.710Z,76.18
2024-03-13T10:46:08.694Z,76.90
2024-03-13T10:48:37.499Z,79.18
2024-03-13T10:51:13.481Z,77.23
2024-03-13T10:53:46.956Z,77.41
2024-03-13T10:56:20.278Z,77.35
2024-03-13T10:58:48.592Z,75.69
2024-03-13T11:01:19.552Z,77.57
2024-03-13T11:03:48.598Z,79.01
2024-03-13T11:06:17.550Z,78.02
2024-03-13T11:08:45.770Z,78.97
2024-03-13T11:11:20.851Z,78.85
2024-03-13T11:13:58.553Z,75.50
2024-03-13T11:16:28.844Z,73.81
2024-03-13T11:18:57.894Z,71.72
2024-03-13T11:21:39.470Z,71.82
2024-03-13T11:24:12.581Z,72.20
2024-03-13T11:26:40.702Z,71.49
2024-03-13T11:29:15.856Z,71.45
2024-03-13T11:31:43.348Z,72.78
2024-03-13T11:34:16.136Z,71.99
2024-03-13T11:36:46.806Z,69.81
2024-03-13T11:39:17.741Z,68.66
2024-03-13T11:41:46.476Z,67.88
2024-03-13T11:44:21.523Z,68.76
2024-03-13T11:46:51.540Z,67.63
2024-03-13T11:49:21.331Z,67.55
2024-03-13T11:52:05.795Z,68.68
2024-03-13T11:54:34.401Z,66.27
2024-03-13T11:57:19.153Z,66.20
2024-03-13T11:59:56.096Z,64.56
2024-03-13T12:02:32.173Z,66.81
2024-03-13T12:05:08.423Z,65.90
2024-03-13T12:07:44.355Z,66.16
2024-03-13T12:10:21.583Z,62.85
2024-03-13T12:12:49.305Z,63.65
2024-03-13T12:15:20.551Z,62.56
2024-03-13T12:17:52.864Z,62.90
2024-03-13T12:20:23.769Z,63.11
2024-03-13T12:22:52.177Z,63.36
2024-03-13T12:25:21.562Z,61.15
2024-03-13T12:27:53.018Z,62.44
2024-03-13T12:30:22.499Z,64.95
2024-03-13T12:32:59.895Z,64.20
2024-03-13T12:35:28.861Z,64.02
2024-03-13T12:37:59.041Z,63.46
2024-03-13T12:40:27.318Z,61.75
2024-03-13T12:43:12.120Z,63.07
2024-03-13T12:45:40.583Z,62.33
2024-03-13T12:48:11.059Z,63.79
2024-03-13T12:50:38.532Z,62.98
2024-03-13T12:53:06.399Z,63.81
2024-03-13T12:55:35.312Z,63.00
2024-03-13T12:58:08.773Z,62.63
2024-03-13T13:00:44.483Z,64.20
2024-03-13T13:03:12.722Z,63.32
2024-03-13T13:05:40.879Z,62.78
2024-03-13T13:08:14.733Z,62.47
2024-03-13T13:10:43.647Z,60.61
2024-03-13T13:13:10.603Z,60.23
2024-03-13T13:15:39.098Z,62.31
2024-03-13T13:18:09.568Z,62.89
2024-03-13T13:20:41.453Z,59.78
2024-03-13T13:23:11.217Z,59.82
2024-03-13T13:25:39.103Z,58.01
2024-03-13T13:28:12.098Z,56.78
2024-03-13T13:30:44.321Z,53.60
2024-03-13T13:33:11.999Z,50.38
2024-03-13T13:35:44.638Z,48.36
2024-03-13T13:38:13.474Z,48.91
2024-03-13T13:40:43.901Z,48.01
2024-03-13T13:43:10.971Z,47.42
2024-03-13T13:45:39.320Z,46.39
2024-03-13T13:48:11.142Z,46.04
2024-03-13T13:50:38.809Z,45.65
2024-03-13T13:53:07.015Z,45.13
2024-03-13T13:58:06.727Z,46.12
2024-03-13T14:00:37.045Z,44.92
2024-03-13T14:03:04.246Z,44.47
2024-03-13T14:05:40.893Z,43.71
2024-03-13T14:08:09.587Z,44.20
2024-03-13T14:10:41.999Z,43.33
2024-03-13T14:13:09.010Z,43.62
2024-03-13T14:15:36.029Z,44.78
2024-03-13T14:18:07.692Z,45.17
2024-03-13T14:20:35.171Z,46.22
2024-03-13T14:23:03.523Z,45.81
2024-03-13T14:25:33.707Z,47.24
2024-03-13T14:28:01.420Z,49.07
2024-03-13T14:30:30.961Z,49.46
2024-03-13T14:32:59.448Z,49.39
2024-03-13T14:35:27.316Z,49.55
2024-03-13T14:37:54.190Z,50.46
2024-03-13T14:40:24.035Z,51.14
2024-03-13T14:42:54.940Z,50.62
2024-03-13T14:45:24.554Z,49.98
2024-03-13T14:47:53.966Z,48.63
2024-03-13T14:50:21.870Z,48.93
2024-03-13T14:53:03.605Z,48.91
2024-03-13T14:55:36.035Z,50.16
2024-03-13T14:58:05.027Z,50.80
2024-03-13T15:00:34.235Z,50.94
2024-03-13T15:03:01.480Z,51.84
2024-03-13T15:05:33.721Z,51.39
2024-03-13T15:08:06.396Z,52.17
2024-03-13T15:10:34.102Z,52.08
2024-03-13T15:13:03.391Z,51.74
2024-03-13T15:15:31.039Z,51.90
2024-03-13T15:18:01.936Z,52.42
2024-03-13T15:20:29.406Z,52.07
2024-03-13T15:22:56.790Z,51.79
2024-03-13T15:25:24.497Z,51.92
2024-03-13T15:27:52.616Z,52.40
2024-03-13T15:30:20.505Z,52.96
2024-03-13T15:32:48.240Z,53.96
2024-03-13T15:35:15.996Z,55.23
2024-03-13T15:37:44.058Z,55.60
2024-03-13T15:40:17.486Z,55.67
2024-03-13T15:42:48.957Z,56.16
2024-03-13T15:45:19.317Z,56.37
2024-03-13T15:47:47.787Z,56.64
2024-03-13T15:50:25.411Z,56.97
2024-03-13T15:52:58.928Z,57.60
2024-03-13T15:55:25.938Z,58.03
2024-03-13T15:57:53.671Z,57.97
2024-03-13T16:00:26.048Z,58.57
2024-03-13T16:02:56.871Z,59.18
2024-03-13T16:05:27.815Z,59.66
2024-03-13T16:08:16.278Z,60.33
2024-03-13T16:10:44.499Z,60.97
2024-03-13T16:13:12.067Z,61.69
2024-03-13T16:15:39.487Z,61.17
2024-03-13T16:18:06.462Z,61.01
2024-03-13T16:20:37.806Z,60.06
2024-03-13T16:23:07.337Z,60.27
2024-03-13T16:25:34.865Z,59.77
2024-03-13T16:28:02.046Z,59.89
2024-03-13T16:30:31.511Z,59.55
2024-03-13T16:33:00.868Z,59.60
2024-03-13T16:35:35.488Z,60.12
2024-03-13T16:38:03.194Z,60.14
2024-03-13T16:40:30.384Z,60.22
2024-03-13T16:42:58.934Z,60.36
2024-03-13T16:45:27.518Z,60.92
2024-03-13T16:47:54.701Z,61.61
2024-03-13T16:50:23.495Z,61.97
2024-03-13T16:52:50.955Z,62.05
2024-03-13T16:55:18.289Z,63.71
2024-03-13T16:57:46.044Z,67.85
2024-03-13T17:00:17.943Z,71.31
2024-03-13T17:02:46.350Z,74.12
2024-03-13T17:05:16.033Z,73.67
2024-03-13T17:07:44.444Z,74.19
2024-03-13T17:10:11.476Z,74.95
2024-03-13T17:12:39.936Z,77.59
2024-03-13T17:15:09.231Z,78.86
2024-03-13T17:17:38.991Z,80.23
2024-03-13T17:20:11.650Z,82.00
2024-03-13T17:22:39.187Z,82.32
2024-03-13T17:25:14.286Z,83.21
2024-03-13T17:27:43.577Z,83.55
2024-03-13T17:30:14.809Z,82.96
2024-03-13T17:32:44.132Z,83.28
2024-03-13T17:35:12.184Z,83.23
2024-03-13T17:37:39.282Z,82.44
2024-03-13T17:40:15.173Z,82.03
2024-03-13T17:42:45.728Z,82.87
2024-03-13T17:45:13.363Z,84.07
2024-03-13T17:47:41.049Z,87.02
2024-03-13T17:50:13.301Z,87.73
2024-03-13T17:52:41.602Z,87.29
2024-03-13T17:55:14.765Z,88.34
2024-03-13T17:57:42.060Z,88.39
2024-03-13T18:00:12.229Z,86.40
2024-03-13T18:02:39.886Z,85.88
2024-03-13T18:05:12.007Z,86.84
2024-03-13T18:07:40.214Z,87.86
2024-03-13T18:10:07.949Z,86.07
2024-03-13T18:12:36.663Z,86.71
2024-03-13T18:15:04.087Z,86.49
2024-03-13T18:17:32.257Z,85.21
2024-03-13T18:19:59.686Z,85.37
2024-03-13T18:22:26.615Z,86.67
2024-03-13T18:24:55.599Z,86.49
2024-03-13T18:27:23.174Z,86.16
2024-03-13T18:29:50.780Z,87.93
2024-03-13T18:32:18.021Z,88.86
2024-03-13T18:34:48.230Z,88.49
2024-03-13T18:37:15.473Z,90.09
2024-03-13T18:39:43.927Z,90.95
2024-03-13T18:42:11.708Z,91.76
2024-03-13T18:44:39.503Z,92.84
2024-03-13T18:47:07.478Z,94.17
2024-03-13T18:49:35.669Z,96.03
2024-03-13T18:52:06.802Z,97.09
2024-03-13T18:54:36.037Z,97.86
2024-03-13T18:57:04.520Z,98.41
2024-03-13T18:59:33.252Z,96.11
2024-03-13T19:02:00.392Z,99.03
2024-03-13T19:04:28.950Z,100.00
2024-03-13T19:06:56.660Z,100.00
2024-03-13T19:09:23.818Z,100.00
2024-03-13T19:11:51.247Z,100.00
2024-03-13T19:14:18.158Z,100.00
2024-03-13T19:16:45.505Z,100.00
2024-03-13T19:19:13.964Z,100.00
2024-03-13T19:21:43.808Z,100.00
2024-03-13T19:24:13.636Z,100.00
2024-03-13T19:26:40.463Z,100.00
2024-03-13T19:29:07.481Z,100.00
2024-03-13T19:31:39.264Z,100.00
2024-03-13T19:34:11.655Z,100.00
2024-03-13T19:36:39.040Z,100.00
2024-03-13T19:39:06.171Z,100.00
2024-03-13T19:41:33.616Z,100.00
2024-03-13T19:44:01.366Z,100.00
2024-03-13T19:46:36.367Z,100.00
2024-03-13T19:49:04.698Z,100.00
2024-03-13T19:51:32.074Z,100.00
2024-03-13T19:54:00.639Z,100.00
2024-03-13T19:56:27.994Z,100.00
2024-03-13T19:58:56.067Z,100.00
2024-03-13T20:01:23.509Z,100.00
2024-03-13T20:03:50.681Z,100.00
2024-03-13T20:06:17.748Z,100.00
2024-03-13T20:08:45.580Z,100.00
2024-03-13T20:11:13.584Z,100.00
2024-03-13T20:13:43.168Z,100.00
2024-03-13T20:16:13.417Z,100.00
2024-03-13T20:18:44.218Z,100.00
2024-03-13T20:21:12.245Z,100.00
2024-03-13T20:23:43.091Z,100.00
2024-03-13T20:26:10.372Z,100.00
2024-03-13T20:28:40.623Z,100.00
2024-03-13T20:31:08.781Z,100.00
2024-03-13T20:33:36.357Z,100.00
2024-03-13T20:36:03.741Z,100.00
2024-03-13T20:38:32.625Z,100.00
2024-03-13T20:40:59.595Z,100.00
2024-03-13T20:43:27.524Z,100.00
2024-03-13T20:45:55.082Z,100.00
2024-03-13T20:48:22.566Z,100.00
2024-03-13T20:50:50.018Z,100.00
2024-03-13T20:53:19.421Z,100.00
2024-03-13T20:55:47.494Z,100.00
2024-03-13T20:58:15.177Z,100.00
2024-03-13T21:00:43.385Z,100.00
2024-03-13T21:03:10.388Z,100.00
2024-03-13T21:05:37.574Z,100.00
2024-03-13T21:08:04.767Z,100.00
2024-03-13T21:10:32.031Z,100.00
2024-03-13T21:12:59.198Z,100.00
2024-03-13T21:15:29.176Z,100.00
2024-03-13T21:17:56.513Z,100.00
2024-03-13T21:20:25.469Z,100.00
2024-03-13T21:22:54.501Z,100.00
2024-03-13T21:25:23.052Z,100.00
2024-03-13T21:27:50.487Z,100.00
2024-03-13T21:30:17.443Z,100.00
2024-03-13T21:32:45.857Z,100.00
2024-03-13T21:35:13.376Z,100.00
2024-03-13T21:37:41.764Z,100.00
2024-03-13T21:40:17.174Z,100.00
2024-03-13T21:42:46.578Z,100.00
2024-03-13T21:45:14.540Z,100.00
2024-03-13T21:47:45.551Z,100.00
2024-03-13T21:50:12.932Z,100.00
2024-03-13T21:52:43.333Z,100.00
2024-03-13T21:55:11.467Z,100.00
2024-03-13T21:57:39.008Z,100.00
2024-03-13T22:00:07.415Z,100.00
2024-03-13T22:02:34.393Z,100.00
2024-03-13T22:05:05.392Z,100.00
2024-03-13T22:07:32.931Z,100.00
2024-03-13T22:10:05.314Z,100.00
2024-03-13T22:12:32.248Z,100.00
2024-03-13T22:15:06.763Z,100.00
2024-03-13T22:17:35.131Z,100.00
2024-03-13T22:20:05.316Z,100.00
2024-03-13T22:22:34.473Z,100.00
2024-03-13T22:25:01.416Z,100.00
2024-03-13T22:27:29.922Z,100.00
2024-03-13T22:29:57.838Z,100.00
2024-03-13T22:32:30.935Z,100.00
2024-03-13T22:34:58.265Z,100.00
2024-03-13T22:37:25.539Z,100.00
2024-03-13T22:39:52.814Z,100.00
2024-03-13T22:42:20.813Z,100.00
2024-03-13T22:44:48.638Z,100.00
2024-03-13T22:47:16.433Z,100.00
2024-03-13T22:49:46.540Z,100.00
2024-03-13T22:52:15.648Z,100.00
2024-03-13T22:54:42.524Z,100.00
2024-03-13T22:57:10.772Z,100.00
2024-03-13T22:59:37.990Z,100.00
2024-03-13T23:02:05.138Z,100.00
2024-03-13T23:04:35.519Z,100.00
2024-03-13T23:07:04.675Z,100.00
2024-03-13T23:09:32.840Z,100.00
2024-03-13T23:12:04.405Z,100.00
2024-03-13T23:14:33.401Z,100.00
2024-03-13T23:17:11.530Z,100.00
2024-03-13T23:19:39.064Z,100.00
2024-03-13T23:22:07.835Z,100.00
2024-03-13T23:24:35.199Z,100.00
2024-03-13T23:27:03.459Z,100.00
2024-03-13T23:29:31.469Z,100.00
2024-03-13T23:31:58.414Z,100.00
2024-03-13T23:34:26.385Z,100.00
2024-03-13T23:36:53.353Z,100.00
2024-03-13T23:39:25.524Z,100.00
2024-03-13T23:41:54.168Z,100.00
2024-03-13T23:44:21.569Z,100.00
2024-03-13T23:46:51.812Z,100.00
2024-03-13T23:49:23.897Z,100.00
2024-03-13T23:51:52.949Z,100.00
2024-03-13T23:54:19.932Z,100.00
2024-03-13T23:56:47.030Z,100.00
2024-03-13T23:59:14.513Z,100.00
